San Antonio, TX (78239)

2:27 PM CST on March 05, 2015 (GMT -0600)
San Antonio Assembly Hall | Change Station
CLOSE
Current Station
Personal Weather Station
Location: San Antonio, TX
Elevation: 863 ft
Nearby Weather Stations

Elev 863 ft 29.53 °N, 98.37 °W | Updated 3 seconds ago

Clear
Clear
45.9 °F
Feels Like 38 °F
N
21.0
Wind Variable Wind from NNE
Gusts 21.0 mph

Today
High -- | Low -- °F
--% Chance of Precip.
Yesterday
High -- | Low -- °F
Precip. -- in
6:54 AM 6:35 PM
Full, 100% visible
Pressure 30.48 in
Visibility 10.0 miles
Clouds Clear
Windchill 38 °F
Dew Point 25 °F
Humidity 43%
Rainfall in
Snow Depth Not available.
UV 7 out of 12
Pollen 5.40 out of 12
Air Quality Not available.
Flu Activity Not available.
SPECI KRND 052021Z AUTO 03014KT 10SM CLR 08/M07 A3048 RMK AO2 WSHFT 16

More Conditions Fewer Conditions

Pressure 30.48 in
Visibility 10.0 miles
Clouds Clear
Windchill 38 °F
Dew Point 25 °F
Humidity 43%
Rainfall in
Snow Depth Not available.
UV 7 out of 12
Pollen 5.40 out of 12
Air Quality Not available.
Flu Activity Not available.
SPECI KRND 052021Z AUTO 03014KT 10SM CLR 08/M07 A3048 RMK AO2 WSHFT 16

More Conditions Fewer Conditions

10-Day Weather Forecast

Almanac

Astronomy

Mar. 05, 2015 Rise Set
Actual Time
Civil Twilight
Nautical Twilight
Astronomical Twilight
Moon
Length of Visible Light
Length of Day
Tomorrow will be .
, % of the Moon is Illuminated

Today's Extremes

State Highs State Lows

Community

WunderPhotos

Upload Photos

1,802,943 photos uploaded!

WunderBlogs® & News

Nearby

Air Quality

  Air Quality AQ Index Pollutant
Not available.

Snow Depth

Station Depth Elevation

Earthquake Activity

City Distance Mag. Time & Date
Minimum magnitude displayed is 2.5.

Coastal Water Temperatures

Place Temperature

Nearby Weather Stations